Time,TemperatureF,DewpointF,PressureIn,WindDirection,WindDirectionDegrees,WindSpeedMPH,WindSpeedGustMPH,Humidity,HourlyPrecipIn,Conditions,Clouds,dailyrainin,SoftwareType,DateUTC
2013-05-19 00:01:00,66.9,59.5,30.06,South,180,0.0,-999.0,77,0.00,,,0.00,,2013-05-19 04:01:00,
2013-05-19 00:06:00,66.7,59.3,30.06,South,180,0.0,-999.0,77,0.00,,,0.00,,2013-05-19 04:06:00,
2013-05-19 00:11:00,66.5,59.4,30.06,SSW,203,0.0,-999.0,78,0.00,,,0.00,,2013-05-19 04:11:00,
2013-05-19 00:16:00,66.5,59.4,30.06,NNW,338,0.0,-999.0,78,0.00,,,0.00,,2013-05-19 04:16:00,
2013-05-19 00:21:00,66.3,59.2,30.06,WNW,293,0.0,-999.0,78,0.00,,,0.00,,2013-05-19 04:21:00,
2013-05-19 00:27:00,66.0,59.0,30.06,WNW,293,0.0,-999.0,78,0.00,,,0.00,,2013-05-19 04:27:00,
2013-05-19 00:31:00,65.8,58.8,30.05,NNW,338,0.0,-999.0,78,0.00,,,0.00,,2013-05-19 04:31:00,
2013-05-19 00:36:00,65.8,58.8,30.05,NNW,338,0.0,-999.0,78,0.00,,,0.00,,2013-05-19 04:36:00,
2013-05-19 00:46:00,65.4,58.7,30.05,ESE,113,0.0,-999.0,79,0.00,,,0.00,,2013-05-19 04:46:00,
2013-05-19 00:56:00,65.1,58.4,30.05,ESE,113,0.0,-999.0,79,0.00,,,0.00,,2013-05-19 04:56:00,
2013-05-19 01:01:00,64.9,58.2,30.05,ESE,113,0.0,-999.0,79,0.00,,,0.00,,2013-05-19 05:01:00,
2013-05-19 01:06:00,64.9,58.2,30.05,ESE,113,0.0,-999.0,79,0.00,,,0.00,,2013-05-19 05:06:00,
2013-05-19 01:16:00,64.7,58.4,30.05,ESE,113,0.0,-999.0,80,0.00,,,0.00,,2013-05-19 05:16:00,
2013-05-19 01:26:00,64.2,57.9,30.05,ESE,113,0.0,-999.0,80,0.00,,,0.00,,2013-05-19 05:26:00,
2013-05-19 01:36:00,64.0,58.1,30.05,ESE,113,0.0,-999.0,81,0.00,,,0.00,,2013-05-19 05:36:00,
2013-05-19 01:46:00,63.6,57.7,30.05,ESE,113,0.0,-999.0,81,0.00,,,0.00,,2013-05-19 05:46:00,
2013-05-19 01:56:00,63.3,57.7,30.05,ESE,113,0.0,-999.0,82,0.00,,,0.00,,2013-05-19 05:56:00,
2013-05-19 02:01:00,63.1,57.5,30.05,ESE,113,0.0,-999.0,82,0.00,,,0.00,,2013-05-19 06:01:00,
2013-05-19 02:06:00,63.1,57.5,30.05,ESE,113,0.0,-999.0,82,0.00,,,0.00,,2013-05-19 06:06:00,
2013-05-19 02:16:00,62.7,57.5,30.05,ESE,113,0.0,-999.0,83,0.00,,,0.00,,2013-05-19 06:16:00,
2013-05-19 02:21:00,62.7,57.5,30.05,ESE,113,0.0,-999.0,83,0.00,,,0.00,,2013-05-19 06:21:00,
2013-05-19 02:26:00,62.6,57.4,30.05,ESE,113,0.0,-999.0,83,0.00,,,0.00,,2013-05-19 06:26:00,
2013-05-19 02:36:00,62.4,57.5,30.05,ESE,113,0.0,-999.0,84,0.00,,,0.00,,2013-05-19 06:36:00,
2013-05-19 02:46:00,62.2,57.3,30.04,ESE,113,0.0,-999.0,84,0.00,,,0.00,,2013-05-19 06:46:00,
2013-05-19 02:51:00,61.8,56.9,30.04,ESE,113,0.0,-999.0,84,0.00,,,0.00,,2013-05-19 06:51:00,
2013-05-19 02:56:00,61.8,56.9,30.04,ESE,113,0.0,-999.0,84,0.00,,,0.00,,2013-05-19 06:56:00,
2013-05-19 03:01:00,61.7,57.2,30.04,North,0,0.0,-999.0,85,0.00,,,0.00,,2013-05-19 07:01:00,
2013-05-19 03:06:00,61.7,57.2,30.05,ESE,113,0.0,-999.0,85,0.00,,,0.00,,2013-05-19 07:06:00,
2013-05-19 03:16:00,61.5,57.0,30.05,ESE,113,0.0,-999.0,85,0.00,,,0.00,,2013-05-19 07:16:00,
2013-05-19 03:21:00,61.5,57.0,30.05,ESE,113,0.0,-999.0,85,0.00,,,0.00,,2013-05-19 07:21:00,
2013-05-19 03:26:00,61.5,57.0,30.05,ESE,113,0.0,-999.0,85,0.00,,,0.00,,2013-05-19 07:26:00,
2013-05-19 03:31:00,61.5,57.0,30.05,ESE,113,0.0,-999.0,85,0.00,,,0.00,,2013-05-19 07:31:00,
2013-05-19 03:36:00,61.3,56.8,30.05,ESE,113,0.0,-999.0,85,0.00,,,0.00,,2013-05-19 07:36:00,
2013-05-19 03:46:00,61.3,56.8,30.04,ESE,113,0.0,-999.0,85,0.00,,,0.00,,2013-05-19 07:46:00,
2013-05-19 03:56:00,60.9,56.4,30.05,ESE,113,0.0,-999.0,85,0.00,,,0.00,,2013-05-19 07:56:00,
2013-05-19 04:01:00,60.9,56.7,30.05,ESE,113,0.0,-999.0,86,0.00,,,0.00,,2013-05-19 08:01:00,
2013-05-19 04:06:00,60.9,56.7,30.05,ESE,113,0.0,-999.0,86,0.00,,,0.00,,2013-05-19 08:06:00,
2013-05-19 04:11:00,60.6,56.4,30.04,ESE,113,0.0,-999.0,86,0.00,,,0.00,,2013-05-19 08:11:00,
2013-05-19 04:16:00,60.6,56.4,30.04,ESE,113,0.0,-999.0,86,0.00,,,0.00,,2013-05-19 08:16:00,
2013-05-19 04:26:00,60.4,56.2,30.04,ESE,113,0.0,-999.0,86,0.00,,,0.00,,2013-05-19 08:26:00,
2013-05-19 04:36:00,60.4,56.2,30.04,ESE,113,0.0,-999.0,86,0.00,,,0.00,,2013-05-19 08:36:00,
2013-05-19 04:46:00,60.2,56.3,30.05,North,0,0.0,-999.0,87,0.00,,,0.00,,2013-05-19 08:46:00,
2013-05-19 04:51:00,60.0,56.1,30.04,ESE,113,0.0,-999.0,87,0.00,,,0.00,,2013-05-19 08:51:00,
2013-05-19 04:56:00,60.0,56.1,30.04,ESE,113,0.0,-999.0,87,0.00,,,0.00,,2013-05-19 08:56:00,
2013-05-19 05:01:00,60.0,56.1,30.04,ESE,113,0.0,-999.0,87,0.00,,,0.00,,2013-05-19 09:01:00,
2013-05-19 05:06:00,60.0,56.1,30.04,ESE,113,0.0,-999.0,87,0.00,,,0.00,,2013-05-19 09:06:00,
2013-05-19 05:16:00,59.9,56.0,30.04,ESE,113,0.0,-999.0,87,0.00,,,0.00,,2013-05-19 09:16:00,
2013-05-19 05:21:00,59.9,56.0,30.04,ESE,113,0.0,-999.0,87,0.00,,,0.00,,2013-05-19 09:21:00,
2013-05-19 05:26:00,59.7,55.8,30.04,ESE,113,0.0,-999.0,87,0.00,,,0.00,,2013-05-19 09:26:00,
2013-05-19 05:31:00,59.7,55.8,30.05,ESE,113,0.0,-999.0,87,0.00,,,0.00,,2013-05-19 09:31:00,
2013-05-19 05:36:00,59.7,55.8,30.05,ESE,113,0.0,-999.0,87,0.00,,,0.00,,2013-05-19 09:36:00,
2013-05-19 05:46:00,59.7,55.8,30.05,ESE,113,0.0,-999.0,87,0.00,,,0.00,,2013-05-19 09:46:00,
2013-05-19 05:51:00,59.5,55.9,30.05,ESE,113,0.0,-999.0,88,0.00,,,0.00,,2013-05-19 09:51:00,
2013-05-19 05:56:00,59.5,55.9,30.06,ESE,113,0.0,-999.0,88,0.00,,,0.00,,2013-05-19 09:56:00,
2013-05-19 06:01:00,59.5,55.9,30.07,ESE,113,0.0,-999.0,88,0.00,,,0.00,,2013-05-19 10:01:00,
2013-05-19 06:06:00,59.5,55.9,30.07,ESE,113,0.0,-999.0,88,0.00,,,0.00,,2013-05-19 10:06:00,
2013-05-19 06:16:00,59.5,55.9,30.07,ESE,113,0.0,-999.0,88,0.00,,,0.00,,2013-05-19 10:16:00,
2013-05-19 06:21:00,59.5,55.9,30.07,ESE,113,0.0,-999.0,88,0.00,,,0.00,,2013-05-19 10:21:00,
2013-05-19 06:26:00,59.5,55.9,30.07,ESE,113,0.0,-999.0,88,0.00,,,0.00,,2013-05-19 10:26:00,
2013-05-19 06:36:00,59.5,55.9,30.08,ESE,113,0.0,-999.0,88,0.00,,,0.00,,2013-05-19 10:36:00,
2013-05-19 06:46:00,59.5,55.9,30.07,ESE,113,0.0,-999.0,88,0.00,,,0.00,,2013-05-19 10:46:00,
2013-05-19 06:56:00,59.5,55.9,30.07,ESE,113,0.0,-999.0,88,0.00,,,0.00,,2013-05-19 10:56:00,
2013-05-19 07:01:00,59.5,55.9,30.08,SE,135,0.0,-999.0,88,0.00,,,0.00,,2013-05-19 11:01:00,
2013-05-19 07:06:00,59.5,55.9,30.07,SE,135,0.0,-999.0,88,0.00,,,0.00,,2013-05-19 11:06:00,
2013-05-19 07:16:00,59.7,56.1,30.07,SE,135,0.0,-999.0,88,0.00,,,0.00,,2013-05-19 11:16:00,
2013-05-19 07:26:00,60.0,56.8,30.08,SE,135,0.0,-999.0,89,0.00,,,0.00,,2013-05-19 11:26:00,
2013-05-19 07:36:00,60.8,57.5,30.08,SSW,203,0.0,-999.0,89,0.00,,,0.00,,2013-05-19 11:36:00,
2013-05-19 07:46:00,61.5,57.9,30.08,SSW,203,0.0,-999.0,88,0.00,,,0.00,,2013-05-19 11:46:00,
2013-05-19 07:51:00,62.0,58.4,30.08,SSW,203,0.0,-999.0,88,0.00,,,0.00,,2013-05-19 11:51:00,
2013-05-19 07:56:00,62.2,58.6,30.09,South,180,0.0,-999.0,88,0.00,,,0.00,,2013-05-19 11:56:00,
2013-05-19 08:01:00,62.4,58.5,30.09,SSW,203,0.0,-999.0,87,0.00,,,0.00,,2013-05-19 12:01:00,
2013-05-19 08:06:00,62.7,58.8,30.09,SSW,203,0.0,-999.0,87,0.00,,,0.00,,2013-05-19 12:06:00,
2013-05-19 08:16:00,63.5,59.2,30.09,NW,315,0.0,-999.0,86,0.00,,,0.00,,2013-05-19 12:16:00,
2013-05-19 08:21:00,63.6,59.0,30.09,North,0,0.0,-999.0,85,0.00,,,0.00,,2013-05-19 12:21:00,
2013-05-19 08:26:00,63.8,59.2,30.09,NW,315,0.0,-999.0,85,0.00,,,0.00,,2013-05-19 12:26:00,
2013-05-19 08:31:00,64.2,59.6,30.09,SSE,158,0.0,-999.0,85,0.00,,,0.00,,2013-05-19 12:31:00,
2013-05-19 08:36:00,64.5,59.6,30.09,NNW,338,0.0,-999.0,84,0.00,,,0.00,,2013-05-19 12:36:00,
2013-05-19 08:46:00,65.4,60.1,30.09,NNW,338,0.0,-999.0,83,0.00,,,0.00,,2013-05-19 12:46:00,
2013-05-19 08:56:00,66.0,60.4,30.09,East,90,0.0,-999.0,82,0.00,,,0.00,,2013-05-19 12:56:00,
2013-05-19 09:01:00,66.3,60.6,30.10,North,0,0.0,-999.0,82,0.00,,,0.00,,2013-05-19 13:01:00,
2013-05-19 09:06:00,66.5,60.5,30.09,SW,225,0.0,-999.0,81,0.00,,,0.00,,2013-05-19 13:06:00,
2013-05-19 09:16:00,67.1,60.7,30.09,NE,45,0.0,-999.0,80,0.00,,,0.00,,2013-05-19 13:16:00,
2013-05-19 09:21:00,67.2,60.8,30.09,SW,225,0.0,-999.0,80,0.00,,,0.00,,2013-05-19 13:21:00,
2013-05-19 09:26:00,67.6,61.2,30.09,ENE,68,0.0,-999.0,80,0.00,,,0.00,,2013-05-19 13:26:00,
2013-05-19 09:36:00,68.1,61.0,30.09,ENE,68,0.0,-999.0,78,0.00,,,0.00,,2013-05-19 13:36:00,
2013-05-19 09:46:00,68.5,61.4,30.09,ENE,68,0.0,-999.0,78,0.00,,,0.00,,2013-05-19 13:46:00,
2013-05-19 09:51:00,68.7,61.6,30.09,NE,45,0.0,-999.0,78,0.00,,,0.00,,2013-05-19 13:51:00,
2013-05-19 09:56:00,68.7,61.2,30.09,NW,315,0.0,-999.0,77,0.00,,,0.00,,2013-05-19 13:56:00,
2013-05-19 10:01:00,68.9,61.4,30.09,WNW,293,0.0,-999.0,77,0.00,,,0.00,,2013-05-19 14:01:00,
2013-05-19 10:06:00,69.0,61.5,30.09,NW,315,0.0,-999.0,77,0.00,,,0.00,,2013-05-19 14:06:00,
2013-05-19 10:16:00,69.8,62.3,30.08,West,270,0.0,-999.0,77,0.00,,,0.00,,2013-05-19 14:16:00,
2013-05-19 10:26:00,70.7,62.8,30.08,ENE,68,0.0,-999.0,76,0.00,,,0.00,,2013-05-19 14:26:00,
2013-05-19 10:31:00,71.0,62.7,30.08,NW,315,0.0,-999.0,75,0.00,,,0.00,,2013-05-19 14:31:00,
2013-05-19 10:36:00,70.8,62.5,30.08,West,270,0.0,-999.0,75,0.00,,,0.00,,2013-05-19 14:36:00,
2013-05-19 10:46:00,71.0,62.3,30.07,WNW,293,0.0,-999.0,74,0.00,,,0.00,,2013-05-19 14:46:00,
2013-05-19 10:51:00,70.8,62.1,30.07,NNE,23,0.0,-999.0,74,0.00,,,0.00,,2013-05-19 14:51:00,
2013-05-19 10:56:00,70.8,62.1,30.07,ESE,113,0.0,-999.0,74,0.00,,,0.00,,2013-05-19 14:56:00,
2013-05-19 11:01:00,70.8,62.1,30.08,NW,315,0.0,-999.0,74,0.00,,,0.00,,2013-05-19 15:01:00,
2013-05-19 11:06:00,70.5,61.8,30.07,NNW,338,0.0,-999.0,74,0.00,,,0.00,,2013-05-19 15:06:00,
2013-05-19 11:16:00,70.7,62.4,30.07,West,270,0.0,-999.0,75,0.00,,,0.00,,2013-05-19 15:16:00,
2013-05-19 11:21:00,70.8,62.5,30.08,ENE,68,0.0,-999.0,75,0.00,,,0.00,,2013-05-19 15:21:00,
2013-05-19 11:26:00,71.2,62.5,30.08,NNE,23,0.0,-999.0,74,0.00,,,0.00,,2013-05-19 15:26:00,
2013-05-19 11:36:00,71.7,62.6,30.07,NNE,23,0.0,-999.0,73,0.00,,,0.00,,2013-05-19 15:36:00,
2013-05-19 11:41:00,72.3,63.2,30.07,NNW,338,0.0,-999.0,73,0.00,,,0.00,,2013-05-19 15:41:00,
2013-05-19 11:46:00,72.6,63.5,30.07,SSE,158,0.0,-999.0,73,0.00,,,0.00,,2013-05-19 15:46:00,
2013-05-19 11:51:00,73.2,63.6,30.07,NW,315,0.0,-999.0,72,0.00,,,0.00,,2013-05-19 15:51:00,
2013-05-19 11:56:00,73.2,63.2,30.07,North,0,0.0,-999.0,71,0.00,,,0.00,,2013-05-19 15:56:00,
2013-05-19 12:01:00,73.5,63.9,30.06,SW,225,0.0,-999.0,72,0.00,,,0.00,,2013-05-19 16:01:00,
2013-05-19 12:06:00,74.1,64.1,30.06,WSW,248,0.0,-999.0,71,0.00,,,0.00,,2013-05-19 16:06:00,
2013-05-19 12:16:00,74.1,64.1,30.06,North,0,0.0,-999.0,71,0.00,,,0.00,,2013-05-19 16:16:00,
2013-05-19 12:26:00,74.1,64.1,30.05,SSW,203,0.0,-999.0,71,0.00,,,0.00,,2013-05-19 16:26:00,
2013-05-19 12:31:00,74.6,64.2,30.05,WSW,248,0.0,-999.0,70,0.00,,,0.00,,2013-05-19 16:31:00,
2013-05-19 12:36:00,75.0,64.1,30.05,WSW,248,0.0,-999.0,69,0.00,,,0.00,,2013-05-19 16:36:00,
2013-05-19 12:46:00,75.0,63.7,30.04,NW,315,0.0,-999.0,68,0.00,,,0.00,,2013-05-19 16:46:00,
2013-05-19 12:56:00,75.5,64.6,30.04,ENE,68,0.0,-999.0,69,0.00,,,0.00,,2013-05-19 16:56:00,
2013-05-19 13:01:00,75.9,64.6,30.03,SW,225,0.0,-999.0,68,0.00,,,0.00,,2013-05-19 17:01:00,
2013-05-19 13:06:00,76.1,65.2,30.04,NNE,23,0.0,-999.0,69,0.00,,,0.00,,2013-05-19 17:06:00,
2013-05-19 13:16:00,75.9,64.6,30.04,WNW,293,0.0,-999.0,68,0.00,,,0.00,,2013-05-19 17:16:00,
2013-05-19 13:21:00,76.1,64.8,30.03,NW,315,0.0,-999.0,68,0.00,,,0.00,,2013-05-19 17:21:00,
2013-05-19 13:26:00,76.6,65.3,30.03,North,0,0.0,-999.0,68,0.00,,,0.00,,2013-05-19 17:26:00,
2013-05-19 13:31:00,76.8,65.4,30.03,NNW,338,0.0,-999.0,68,0.00,,,0.00,,2013-05-19 17:31:00,
2013-05-19 13:36:00,76.8,65.4,30.03,NNE,23,0.0,-999.0,68,0.00,,,0.00,,2013-05-19 17:36:00,
2013-05-19 13:46:00,76.4,65.1,30.02,WSW,248,0.0,-999.0,68,0.00,,,0.00,,2013-05-19 17:46:00,
2013-05-19 13:51:00,76.1,64.4,30.02,NW,315,0.0,-999.0,67,0.00,,,0.00,,2013-05-19 17:51:00,
2013-05-19 13:56:00,75.9,64.2,30.02,WSW,248,0.0,-999.0,67,0.00,,,0.00,,2013-05-19 17:56:00,
2013-05-19 14:01:00,75.5,64.2,30.02,SSE,158,0.0,-999.0,68,0.00,,,0.00,,2013-05-19 18:01:00,
2013-05-19 14:06:00,75.5,64.2,30.02,NNW,338,0.0,-999.0,68,0.00,,,0.00,,2013-05-19 18:06:00,
2013-05-19 14:16:00,75.5,64.2,30.02,WNW,293,0.0,-999.0,68,0.00,,,0.00,,2013-05-19 18:16:00,
2013-05-19 14:26:00,75.9,64.6,30.01,West,270,0.0,-999.0,68,0.00,,,0.00,,2013-05-19 18:26:00,
2013-05-19 14:31:00,75.9,64.6,30.01,WSW,248,0.0,-999.0,68,0.00,,,0.00,,2013-05-19 18:31:00,
2013-05-19 14:36:00,76.6,65.3,30.01,NE,45,0.0,-999.0,68,0.00,,,0.00,,2013-05-19 18:36:00,
2013-05-19 14:46:00,76.8,64.6,30.01,SE,135,0.0,-999.0,66,0.00,,,0.00,,2013-05-19 18:46:00,
2013-05-19 14:51:00,76.8,65.0,30.01,NNE,23,0.0,-999.0,67,0.00,,,0.00,,2013-05-19 18:51:00,
2013-05-19 14:56:00,76.8,65.0,30.00,NE,45,0.0,-999.0,67,0.00,,,0.00,,2013-05-19 18:56:00,
2013-05-19 15:01:00,76.6,64.8,30.00,WSW,248,0.0,-999.0,67,0.00,,,0.00,,2013-05-19 19:01:00,
2013-05-19 15:06:00,77.0,65.2,30.00,WSW,248,0.0,-999.0,67,0.00,,,0.00,,2013-05-19 19:06:00,
2013-05-19 15:16:00,76.8,64.6,30.00,North,0,0.0,-999.0,66,0.00,,,0.00,,2013-05-19 19:16:00,
2013-05-19 15:21:00,76.6,64.8,30.00,WSW,248,0.0,-999.0,67,0.00,,,0.00,,2013-05-19 19:21:00,
2013-05-19 15:26:00,76.6,65.3,30.00,WSW,248,0.0,-999.0,68,0.00,,,0.00,,2013-05-19 19:26:00,
2013-05-19 15:31:00,77.1,65.3,30.00,South,180,0.0,-999.0,67,0.00,,,0.00,,2013-05-19 19:31:00,
2013-05-19 15:36:00,77.1,64.9,30.00,South,180,0.0,-999.0,66,0.00,,,0.00,,2013-05-19 19:36:00,
2013-05-19 15:46:00,76.6,64.8,29.99,NW,315,0.0,-999.0,67,0.00,,,0.00,,2013-05-19 19:46:00,
2013-05-19 15:56:00,75.9,64.6,29.99,North,0,0.0,-999.0,68,0.00,,,0.00,,2013-05-19 19:56:00,
2013-05-19 16:01:00,76.1,65.2,29.99,NW,315,0.0,-999.0,69,0.00,,,0.00,,2013-05-19 20:01:00,
2013-05-19 16:06:00,76.2,64.9,29.99,NW,315,0.0,-999.0,68,0.00,,,0.00,,2013-05-19 20:06:00,
2013-05-19 16:11:00,76.8,65.4,29.99,NNW,338,0.0,-999.0,68,0.00,,,0.00,,2013-05-19 20:11:00,
2013-05-19 16:16:00,76.8,65.0,29.98,SW,225,0.0,-999.0,67,0.00,,,0.00,,2013-05-19 20:16:00,
2013-05-19 16:21:00,76.8,65.0,29.99,South,180,0.0,-999.0,67,0.00,,,0.00,,2013-05-19 20:21:00,
2013-05-19 16:26:00,76.6,65.3,29.99,South,180,0.0,-999.0,68,0.00,,,0.00,,2013-05-19 20:26:00,
2013-05-19 16:31:00,76.1,65.2,29.99,South,180,0.0,-999.0,69,0.00,,,0.00,,2013-05-19 20:31:00,
2013-05-19 16:36:00,75.9,64.6,29.99,WSW,248,0.0,-999.0,68,0.00,,,0.00,,2013-05-19 20:36:00,
2013-05-19 16:41:00,75.7,64.8,29.99,NW,315,0.0,-999.0,69,0.00,,,0.00,,2013-05-19 20:41:00,
2013-05-19 16:46:00,75.9,64.6,29.99,NW,315,0.0,-999.0,68,0.00,,,0.00,,2013-05-19 20:46:00,
2013-05-19 16:56:00,76.1,64.8,29.99,NW,315,0.0,-999.0,68,0.00,,,0.00,,2013-05-19 20:56:00,
2013-05-19 17:01:00,76.1,65.2,29.98,NW,315,0.0,-999.0,69,0.00,,,0.00,,2013-05-19 21:01:00,
2013-05-19 17:06:00,75.9,65.0,29.98,NW,315,0.0,-999.0,69,0.00,,,0.00,,2013-05-19 21:06:00,
2013-05-19 17:11:00,75.9,65.0,29.98,NW,315,0.0,-999.0,69,0.00,,,0.00,,2013-05-19 21:11:00,
2013-05-19 17:16:00,75.7,64.8,29.98,NW,315,0.0,-999.0,69,0.00,,,0.00,,2013-05-19 21:16:00,
2013-05-19 17:26:00,75.3,64.4,29.98,NW,315,0.0,-999.0,69,0.00,,,0.00,,2013-05-19 21:26:00,
2013-05-19 17:31:00,75.5,65.0,29.99,WNW,293,0.0,-999.0,70,0.00,,,0.00,,2013-05-19 21:31:00,
2013-05-19 17:36:00,75.5,64.6,29.99,WNW,293,0.0,-999.0,69,0.00,,,0.00,,2013-05-19 21:36:00,
2013-05-19 17:41:00,75.7,64.8,29.99,WNW,293,0.0,-999.0,69,0.00,,,0.00,,2013-05-19 21:41:00,
2013-05-19 17:46:00,75.7,64.8,29.98,WNW,293,0.0,-999.0,69,0.00,,,0.00,,2013-05-19 21:46:00,
2013-05-19 17:51:00,75.7,64.8,29.99,WNW,293,0.0,-999.0,69,0.00,,,0.00,,2013-05-19 21:51:00,
2013-05-19 17:56:00,75.7,65.2,29.99,WNW,293,0.0,-999.0,70,0.00,,,0.00,,2013-05-19 21:56:00,
2013-05-19 18:06:00,75.5,65.0,29.99,WNW,293,0.0,-999.0,70,0.00,,,0.00,,2013-05-19 22:06:00,
2013-05-19 18:11:00,75.5,65.0,29.98,North,0,0.0,-999.0,70,0.00,,,0.00,,2013-05-19 22:11:00,
2013-05-19 18:16:00,75.5,65.0,29.98,WNW,293,0.0,-999.0,70,0.00,,,0.00,,2013-05-19 22:16:00,
2013-05-19 18:21:00,75.5,65.0,29.98,WNW,293,0.0,-999.0,70,0.00,,,0.00,,2013-05-19 22:21:00,
2013-05-19 18:26:00,75.5,65.4,29.98,WNW,293,0.0,-999.0,71,0.00,,,0.00,,2013-05-19 22:26:00,
2013-05-19 18:31:00,75.5,65.0,29.98,WNW,293,0.0,-999.0,70,0.00,,,0.00,,2013-05-19 22:31:00,
2013-05-19 18:36:00,75.5,65.4,29.98,WNW,293,0.0,-999.0,71,0.00,,,0.00,,2013-05-19 22:36:00,
2013-05-19 18:46:00,75.9,65.4,29.97,West,270,0.0,-999.0,70,0.00,,,0.00,,2013-05-19 22:46:00,
2013-05-19 18:56:00,76.2,65.3,29.97,WSW,248,0.0,-999.0,69,0.00,,,0.00,,2013-05-19 22:56:00,
2013-05-19 19:01:00,76.6,65.3,29.97,ENE,68,0.0,-999.0,68,0.00,,,0.00,,2013-05-19 23:01:00,
2013-05-19 19:06:00,76.2,64.9,29.97,WSW,248,0.0,-999.0,68,0.00,,,0.00,,2013-05-19 23:06:00,
2013-05-19 19:16:00,76.2,64.9,29.96,SE,135,0.0,-999.0,68,0.00,,,0.00,,2013-05-19 23:16:00,
2013-05-19 19:26:00,76.1,64.8,29.97,SE,135,0.0,-999.0,68,0.00,,,0.00,,2013-05-19 23:26:00,
2013-05-19 19:31:00,75.9,64.6,29.97,SE,135,0.0,-999.0,68,0.00,,,0.00,,2013-05-19 23:31:00,
2013-05-19 19:36:00,75.5,64.2,29.97,SE,135,0.0,-999.0,68,0.00,,,0.00,,2013-05-19 23:36:00,
2013-05-19 19:46:00,74.8,64.0,29.97,SE,135,0.0,-999.0,69,0.00,,,0.00,,2013-05-19 23:46:00,
2013-05-19 19:56:00,74.3,63.9,29.97,South,180,0.0,-999.0,70,0.00,,,0.00,,2013-05-19 23:56:00,
2013-05-19 20:06:00,74.1,64.1,29.98,WNW,293,0.0,-999.0,71,0.00,,,0.00,,2013-05-20 00:06:00,
2013-05-19 20:16:00,73.7,63.3,29.98,WNW,293,0.0,-999.0,70,0.00,,,0.00,,2013-05-20 00:16:00,
2013-05-19 20:21:00,73.4,63.0,29.98,North,0,0.0,-999.0,70,0.00,,,0.00,,2013-05-20 00:21:00,
2013-05-19 20:26:00,73.2,63.2,29.98,North,0,0.0,-999.0,71,0.00,,,0.00,,2013-05-20 00:26:00,
2013-05-19 20:31:00,73.0,63.1,29.98,North,0,0.0,-999.0,71,0.00,,,0.00,,2013-05-20 00:31:00,
2013-05-19 20:36:00,72.3,62.8,29.99,North,0,0.0,-999.0,72,0.00,,,0.00,,2013-05-20 00:36:00,
2013-05-19 20:46:00,71.9,62.8,29.99,NNW,338,0.0,-999.0,73,0.00,,,0.00,,2013-05-20 00:46:00,
2013-05-19 20:51:00,71.7,62.6,29.99,NNW,338,0.0,-999.0,73,0.00,,,0.00,,2013-05-20 00:51:00,
2013-05-19 20:56:00,71.4,62.3,29.99,NNW,338,0.0,-999.0,73,0.00,,,0.00,,2013-05-20 00:56:00,
2013-05-19 21:06:00,71.2,62.1,30.00,NNW,338,0.0,-999.0,73,0.00,,,0.00,,2013-05-20 01:06:00,
2013-05-19 21:16:00,71.2,62.5,30.00,NNW,338,0.0,-999.0,74,0.00,,,0.00,,2013-05-20 01:16:00,
2013-05-19 21:26:00,70.8,62.1,30.01,NNW,338,0.0,-999.0,74,0.00,,,0.00,,2013-05-20 01:26:00,
2013-05-19 21:36:00,70.7,62.4,30.01,NNW,338,0.0,-999.0,75,0.00,,,0.00,,2013-05-20 01:36:00,
2013-05-19 21:41:00,70.5,62.2,30.01,North,0,0.0,-999.0,75,0.00,,,0.00,,2013-05-20 01:41:00,
2013-05-19 21:46:00,70.5,62.2,30.02,NNW,338,0.0,-999.0,75,0.00,,,0.00,,2013-05-20 01:46:00,
2013-05-19 21:56:00,70.3,62.0,30.02,NW,315,0.0,-999.0,75,0.00,,,0.00,,2013-05-20 01:56:00,
2013-05-19 22:06:00,70.1,61.8,30.02,SE,135,0.0,-999.0,75,0.00,,,0.00,,2013-05-20 02:06:00,
2013-05-19 22:16:00,69.8,62.3,30.03,SE,135,0.0,-999.0,77,0.00,,,0.00,,2013-05-20 02:16:00,
2013-05-19 22:26:00,69.2,62.1,30.02,SE,135,0.0,-999.0,78,0.00,,,0.00,,2013-05-20 02:26:00,
2013-05-19 22:36:00,68.7,61.9,30.03,SE,135,0.0,-999.0,79,0.00,,,0.00,,2013-05-20 02:36:00,
2013-05-19 22:46:00,68.3,61.5,30.03,SE,135,0.0,-999.0,79,0.00,,,0.00,,2013-05-20 02:46:00,
2013-05-19 22:56:00,68.1,61.7,30.03,SE,135,0.0,-999.0,80,0.00,,,0.00,,2013-05-20 02:56:00,
2013-05-19 23:01:00,67.8,61.8,30.02,East,90,0.0,-999.0,81,0.00,,,0.00,,2013-05-20 03:01:00,
2013-05-19 23:06:00,67.8,61.8,30.02,East,90,0.0,-999.0,81,0.00,,,0.00,,2013-05-20 03:06:00,
2013-05-19 23:16:00,67.6,61.6,30.02,ENE,68,0.0,-999.0,81,0.00,,,0.00,,2013-05-20 03:16:00,
2013-05-19 23:26:00,67.2,61.5,30.02,NE,45,0.0,-999.0,82,0.00,,,0.00,,2013-05-20 03:26:00,
2013-05-19 23:31:00,67.2,61.5,30.02,NE,45,0.0,-999.0,82,0.00,,,0.00,,2013-05-20 03:31:00,
2013-05-19 23:36:00,67.1,61.4,30.02,NE,45,0.0,-999.0,82,0.00,,,0.00,,2013-05-20 03:36:00,
2013-05-19 23:46:00,66.9,61.2,30.02,NE,45,0.0,-999.0,82,0.00,,,0.00,,2013-05-20 03:46:00,
2013-05-19 23:56:00,66.9,61.2,30.01,NE,45,0.0,-999.0,82,0.00,,,0.00,,2013-05-20 03:56:00,